createdAt,value
2022-10-09T00:01:25.929Z,68.20
2022-10-09T00:03:56.076Z,67.94
2022-10-09T00:06:30.282Z,68.37
2022-10-09T00:08:59.593Z,68.28
2022-10-09T00:11:29.100Z,68.17
2022-10-09T00:13:57.792Z,68.08
2022-10-09T00:16:26.918Z,68.05
2022-10-09T00:18:55.277Z,67.96
2022-10-09T00:21:28.540Z,67.89
2022-10-09T00:23:58.958Z,67.98
2022-10-09T00:26:27.576Z,68.29
2022-10-09T00:28:55.874Z,68.64
2022-10-09T00:31:24.237Z,68.42
2022-10-09T00:33:52.189Z,68.13
2022-10-09T00:36:22.462Z,67.82
2022-10-09T00:38:50.882Z,67.47
2022-10-09T00:41:30.868Z,67.29
2022-10-09T00:44:03.921Z,67.08
2022-10-09T00:46:46.774Z,66.42
2022-10-09T00:49:29.711Z,65.96
2022-10-09T00:52:02.161Z,65.71
2022-10-09T00:54:32.376Z,65.85
2022-10-09T00:57:00.544Z,65.91
2022-10-09T00:59:28.875Z,66.20
2022-10-09T01:01:56.643Z,66.52
2022-10-09T01:04:24.397Z,66.72
2022-10-09T01:07:14.941Z,66.65
2022-10-09T01:09:51.391Z,67.12
2022-10-09T01:12:55.229Z,67.34
2022-10-09T01:15:27.350Z,67.64
2022-10-09T01:18:29.389Z,67.68
2022-10-09T01:21:13.329Z,67.85
2022-10-09T01:23:41.034Z,67.54
2022-10-09T01:26:33.449Z,67.25
2022-10-09T01:29:07.804Z,66.92
2022-10-09T01:31:40.622Z,66.72
2022-10-09T01:34:10.605Z,66.85
2022-10-09T01:36:39.775Z,66.96
2022-10-09T01:39:11.402Z,66.68
2022-10-09T01:41:43.855Z,67.11
2022-10-09T01:44:27.748Z,66.93
2022-10-09T01:46:56.414Z,67.20
2022-10-09T01:49:53.221Z,67.19
2022-10-09T01:52:21.015Z,66.96
2022-10-09T01:55:10.259Z,67.20
2022-10-09T01:57:43.957Z,67.41
2022-10-09T02:00:12.806Z,67.44
2022-10-09T02:02:42.854Z,66.86
2022-10-09T02:05:15.449Z,66.97
2022-10-09T02:07:43.416Z,67.05
2022-10-09T02:10:11.815Z,67.08
2022-10-09T02:12:49.693Z,66.73
2022-10-09T02:15:17.770Z,66.81
2022-10-09T02:17:49.176Z,66.84
2022-10-09T02:20:25.487Z,67.20
2022-10-09T02:22:54.604Z,67.32
2022-10-09T02:25:22.611Z,67.26
2022-10-09T02:27:50.917Z,67.34
2022-10-09T02:30:20.768Z,67.36
2022-10-09T02:32:53.624Z,67.34
2022-10-09T02:35:21.952Z,67.61
2022-10-09T02:37:49.710Z,67.68
2022-10-09T02:40:17.450Z,67.88
2022-10-09T02:42:49.764Z,67.90
2022-10-09T02:45:17.760Z,67.77
2022-10-09T02:47:45.438Z,67.71
2022-10-09T02:50:13.197Z,67.72
2022-10-09T02:52:40.848Z,67.74
2022-10-09T02:55:08.993Z,67.66
2022-10-09T02:57:36.639Z,67.66
2022-10-09T03:00:08.224Z,67.66
2022-10-09T03:02:36.052Z,68.02
2022-10-09T03:05:04.010Z,67.81
2022-10-09T03:07:31.915Z,68.05
2022-10-09T03:09:59.505Z,68.20
2022-10-09T03:12:27.404Z,68.32
2022-10-09T03:14:55.234Z,68.30
2022-10-09T03:17:22.898Z,68.43
2022-10-09T03:19:50.529Z,68.35
2022-10-09T03:22:18.399Z,68.13
2022-10-09T03:24:46.197Z,68.14
2022-10-09T03:27:13.902Z,68.35
2022-10-09T03:29:41.501Z,68.32
2022-10-09T03:32:10.925Z,68.47
2022-10-09T03:34:38.904Z,68.26
2022-10-09T03:37:06.845Z,68.32
2022-10-09T03:39:34.514Z,68.19
2022-10-09T03:42:02.183Z,68.45
2022-10-09T03:44:29.944Z,68.74
2022-10-09T03:46:59.959Z,68.87
2022-10-09T03:49:27.898Z,68.91
2022-10-09T03:51:55.738Z,68.83
2022-10-09T03:54:23.499Z,69.31
2022-10-09T03:56:51.312Z,69.40
2022-10-09T03:59:19.165Z,69.55
2022-10-09T04:01:46.933Z,69.56
2022-10-09T04:04:14.753Z,69.54
2022-10-09T04:06:42.861Z,69.72
2022-10-09T04:09:10.673Z,69.41
2022-10-09T04:11:38.456Z,69.48
2022-10-09T04:14:06.796Z,69.62
2022-10-09T04:16:34.663Z,69.31
2022-10-09T04:19:02.617Z,69.25
2022-10-09T04:21:30.992Z,69.47
2022-10-09T04:23:58.669Z,69.05
2022-10-09T04:26:26.351Z,68.94
2022-10-09T04:28:54.191Z,68.66
2022-10-09T04:31:21.981Z,68.55
2022-10-09T04:33:49.643Z,68.14
2022-10-09T04:36:17.413Z,67.64
2022-10-09T04:38:44.982Z,67.94
2022-10-09T04:41:13.587Z,67.97
2022-10-09T04:43:41.275Z,67.69
2022-10-09T04:46:12.275Z,67.56
2022-10-09T04:48:42.315Z,68.06
2022-10-09T04:51:10.874Z,68.02
2022-10-09T04:53:39.475Z,67.98
2022-10-09T04:56:15.852Z,67.89
2022-10-09T04:58:44.421Z,68.32
2022-10-09T05:01:21.914Z,67.87
2022-10-09T05:03:50.952Z,68.32
2022-10-09T05:06:20.475Z,67.91
2022-10-09T05:08:48.918Z,67.85
2022-10-09T05:11:20.348Z,67.72
2022-10-09T05:13:50.395Z,67.90
2022-10-09T05:16:21.626Z,67.87
2022-10-09T05:18:50.988Z,68.04
2022-10-09T05:21:19.160Z,68.09
2022-10-09T05:23:47.804Z,67.80
2022-10-09T05:26:18.624Z,67.67
2022-10-09T05:28:47.131Z,67.59
2022-10-09T05:31:26.480Z,67.44
2022-10-09T05:33:55.714Z,67.76
2022-10-09T05:36:23.593Z,67.56
2022-10-09T05:38:51.366Z,67.23
2022-10-09T05:41:20.206Z,66.72
2022-10-09T05:43:49.964Z,66.74
2022-10-09T05:46:26.196Z,66.36
2022-10-09T05:48:58.947Z,66.74
2022-10-09T05:51:32.704Z,66.58
2022-10-09T05:54:04.846Z,66.50
2022-10-09T05:56:36.136Z,66.67
2022-10-09T05:59:05.068Z,66.83
2022-10-09T06:01:41.700Z,66.97
2022-10-09T06:04:18.241Z,66.74
2022-10-09T06:06:47.851Z,66.97
2022-10-09T06:09:25.669Z,67.17
2022-10-09T06:11:55.752Z,67.01
2022-10-09T06:14:24.609Z,67.17
2022-10-09T06:16:53.606Z,67.15
2022-10-09T06:19:21.762Z,67.49
2022-10-09T06:21:49.670Z,66.98
2022-10-09T06:24:27.364Z,66.31
2022-10-09T06:26:57.930Z,66.06
2022-10-09T06:29:26.194Z,65.64
2022-10-09T06:31:54.628Z,65.49
2022-10-09T06:34:22.720Z,65.00
2022-10-09T06:36:50.459Z,64.73
2022-10-09T06:39:18.191Z,64.68
2022-10-09T06:41:45.964Z,64.63
2022-10-09T06:44:43.576Z,64.72
2022-10-09T06:47:11.508Z,64.71
2022-10-09T06:49:39.163Z,64.44
2022-10-09T06:52:06.826Z,63.64
2022-10-09T06:54:34.667Z,63.28
2022-10-09T06:57:02.365Z,62.84
2022-10-09T06:59:30.205Z,62.28
2022-10-09T07:01:58.081Z,61.76
2022-10-09T07:04:26.095Z,61.37
2022-10-09T07:06:54.018Z,60.75
2022-10-09T07:09:21.665Z,60.49
2022-10-09T07:11:49.680Z,60.63
2022-10-09T07:14:17.758Z,60.06
2022-10-09T07:16:48.504Z,59.92
2022-10-09T07:19:18.143Z,60.13
2022-10-09T07:21:49.007Z,60.10
2022-10-09T07:24:17.927Z,60.36
2022-10-09T07:26:46.529Z,59.79
2022-10-09T07:29:15.739Z,59.10
2022-10-09T07:31:44.162Z,59.26
2022-10-09T07:34:12.080Z,59.47
2022-10-09T07:36:39.761Z,59.47
2022-10-09T07:39:07.725Z,59.42
2022-10-09T07:41:35.575Z,59.48
2022-10-09T07:44:04.005Z,59.52
2022-10-09T07:46:34.012Z,59.42
2022-10-09T07:49:03.221Z,58.93
2022-10-09T07:51:31.894Z,58.73
2022-10-09T07:54:02.443Z,58.47
2022-10-09T07:56:36.085Z,57.72
2022-10-09T07:59:16.102Z,57.78
2022-10-09T08:01:45.503Z,58.08
2022-10-09T08:04:13.416Z,57.64
2022-10-09T08:06:41.158Z,57.71
2022-10-09T08:09:09.373Z,57.17
2022-10-09T08:11:41.220Z,57.12
2022-10-09T08:14:19.023Z,56.49
2022-10-09T08:16:48.863Z,56.56
2022-10-09T08:19:17.240Z,56.16
2022-10-09T08:21:45.575Z,55.72
2022-10-09T08:24:13.344Z,56.02
2022-10-09T08:26:41.163Z,56.05
2022-10-09T08:29:11.072Z,55.95
2022-10-09T08:31:39.052Z,55.99
2022-10-09T08:34:06.842Z,56.39
2022-10-09T08:36:34.746Z,55.87
2022-10-09T08:39:02.606Z,56.70
2022-10-09T08:41:34.111Z,56.16
2022-10-09T08:44:32.435Z,55.99
2022-10-09T08:47:17.696Z,55.96
2022-10-09T08:50:11.499Z,54.80
2022-10-09T08:52:53.168Z,55.32
2022-10-09T08:55:27.126Z,55.37
2022-10-09T08:58:04.516Z,55.13
2022-10-09T09:00:42.866Z,54.75
2022-10-09T09:03:44.888Z,55.16
2022-10-09T09:06:21.535Z,55.61
2022-10-09T09:09:07.874Z,55.55
2022-10-09T09:11:39.082Z,55.21
2022-10-09T09:14:42.403Z,54.81
2022-10-09T09:17:28.938Z,55.19
2022-10-09T09:20:25.762Z,54.93
2022-10-09T09:22:53.722Z,55.15
2022-10-09T09:25:28.608Z,54.58
2022-10-09T09:28:02.531Z,53.88
2022-10-09T09:30:37.546Z,53.65
2022-10-09T09:33:18.916Z,54.42
2022-10-09T09:35:55.808Z,54.43
2022-10-09T09:38:23.776Z,54.22
2022-10-09T09:40:51.576Z,53.92
2022-10-09T09:43:25.011Z,53.54
2022-10-09T09:45:54.823Z,53.34
2022-10-09T09:48:31.743Z,53.73
2022-10-09T09:51:23.563Z,53.65
2022-10-09T09:53:55.225Z,53.00
2022-10-09T09:56:59.824Z,52.32
2022-10-09T09:59:41.066Z,51.71
2022-10-09T10:02:21.244Z,51.83
2022-10-09T10:05:03.558Z,51.10
2022-10-09T10:07:40.453Z,51.13
2022-10-09T10:10:31.219Z,52.05
2022-10-09T10:13:06.903Z,51.95
2022-10-09T10:15:59.274Z,51.10
2022-10-09T10:18:41.940Z,50.94
2022-10-09T10:21:22.606Z,50.97
2022-10-09T10:24:08.727Z,51.09
2022-10-09T10:26:54.335Z,51.40
2022-10-09T10:29:31.836Z,51.81
2022-10-09T10:32:11.909Z,51.65
2022-10-09T10:34:50.850Z,52.34
2022-10-09T10:37:46.774Z,51.97
2022-10-09T10:41:04.644Z,52.16
2022-10-09T10:43:50.682Z,52.95
2022-10-09T10:46:27.771Z,52.79
2022-10-09T10:49:03.135Z,52.83
2022-10-09T10:51:44.876Z,53.41
2022-10-09T10:54:45.918Z,53.53
2022-10-09T10:57:52.266Z,53.19
2022-10-09T11:00:27.469Z,53.23
2022-10-09T11:03:17.346Z,53.11
2022-10-09T11:06:19.753Z,53.05
2022-10-09T11:09:17.273Z,53.05
2022-10-09T11:12:19.645Z,53.18
2022-10-09T11:15:40.348Z,52.18
2022-10-09T11:18:59.100Z,52.89
2022-10-09T11:21:53.051Z,52.42
2022-10-09T11:28:17.602Z,52.67
2022-10-09T11:35:54.109Z,52.44
2022-10-09T11:39:00.854Z,52.07
2022-10-09T11:41:38.893Z,51.83
2022-10-09T11:44:55.934Z,51.08
2022-10-09T11:47:48.660Z,51.77
2022-10-09T11:51:14.555Z,51.34
2022-10-09T11:53:49.892Z,51.23
2022-10-09T11:56:32.348Z,51.40
2022-10-09T11:59:14.657Z,51.61
2022-10-09T12:02:05.262Z,51.36
2022-10-09T12:04:54.482Z,51.27
2022-10-09T12:10:41.527Z,51.48
2022-10-09T12:13:50.567Z,51.79
2022-10-09T12:16:50.052Z,51.59
2022-10-09T12:19:42.395Z,51.54
2022-10-09T12:22:20.268Z,52.24
2022-10-09T12:24:54.062Z,51.77
2022-10-09T12:27:47.067Z,52.39
2022-10-09T12:30:22.273Z,51.75
2022-10-09T12:33:15.493Z,51.20
2022-10-09T12:35:49.800Z,51.18
2022-10-09T12:38:37.878Z,51.40
2022-10-09T12:41:27.952Z,50.78
2022-10-09T12:44:04.099Z,50.20
2022-10-09T12:46:36.285Z,50.41
2022-10-09T12:49:14.438Z,50.03
2022-10-09T12:51:42.473Z,50.09
2022-10-09T12:54:10.717Z,49.63
2022-10-09T12:56:39.416Z,49.50
2022-10-09T12:59:07.648Z,49.61
2022-10-09T13:01:36.059Z,50.10
2022-10-09T13:04:06.483Z,49.92
2022-10-09T13:06:45.371Z,50.26
2022-10-09T13:09:26.535Z,50.03
2022-10-09T13:12:01.100Z,50.22
2022-10-09T13:14:36.843Z,50.06
2022-10-09T13:17:07.715Z,50.24
2022-10-09T13:19:35.957Z,50.08
2022-10-09T13:22:16.529Z,50.19
2022-10-09T13:24:44.360Z,50.41
2022-10-09T13:27:14.966Z,50.26
2022-10-09T13:29:43.667Z,50.60
2022-10-09T13:32:13.238Z,50.42
2022-10-09T13:34:58.734Z,50.16
2022-10-09T13:37:30.986Z,49.91
2022-10-09T13:40:00.178Z,49.56
2022-10-09T13:42:32.695Z,49.50
2022-10-09T13:45:00.447Z,49.63
2022-10-09T13:47:28.093Z,49.94
2022-10-09T13:49:55.757Z,49.56
2022-10-09T13:52:25.115Z,49.45
2022-10-09T13:54:53.371Z,50.23
2022-10-09T13:57:21.066Z,50.49
2022-10-09T13:59:49.046Z,50.27
2022-10-09T14:02:16.885Z,50.38
2022-10-09T14:04:56.776Z,50.61
2022-10-09T14:07:24.645Z,50.80
2022-10-09T14:09:52.433Z,51.07
2022-10-09T14:12:28.193Z,51.56
2022-10-09T14:15:50.904Z,51.83
2022-10-09T14:19:01.136Z,51.84
2022-10-09T14:21:34.863Z,51.85
2022-10-09T14:24:05.537Z,52.08
2022-10-09T14:26:34.325Z,52.26
2022-10-09T14:29:30.178Z,52.23
2022-10-09T14:32:01.940Z,52.37
2022-10-09T14:35:06.952Z,52.52
2022-10-09T14:37:41.560Z,52.59
2022-10-09T14:40:11.448Z,52.62
2022-10-09T14:42:39.882Z,52.90
2022-10-09T14:45:11.312Z,52.84
2022-10-09T14:47:38.955Z,53.30
2022-10-09T14:50:09.218Z,53.87
2022-10-09T14:53:02.536Z,53.71
2022-10-09T14:55:43.011Z,54.89
2022-10-09T14:58:35.033Z,54.83
2022-10-09T15:01:11.795Z,54.08
2022-10-09T15:03:39.776Z,54.38
2022-10-09T15:06:09.933Z,54.33
2022-10-09T15:09:20.746Z,55.01
2022-10-09T15:12:04.814Z,54.85
2022-10-09T15:14:53.960Z,54.63
2022-10-09T15:17:27.806Z,55.13
2022-10-09T15:20:10.119Z,54.75
2022-10-09T15:22:55.478Z,54.84
2022-10-09T15:25:36.214Z,55.22
2022-10-09T15:28:10.891Z,55.03
2022-10-09T15:30:53.520Z,55.05
2022-10-09T15:33:28.301Z,55.25
2022-10-09T15:35:58.499Z,55.20
2022-10-09T15:38:34.875Z,55.25
2022-10-09T15:41:06.476Z,55.25
2022-10-09T15:43:38.976Z,55.57
2022-10-09T15:46:10.153Z,55.71
2022-10-09T15:49:00.629Z,55.66
2022-10-09T15:51:38.071Z,55.81
2022-10-09T15:54:06.895Z,55.83
2022-10-09T15:56:39.516Z,56.09
2022-10-09T15:59:14.690Z,56.10
2022-10-09T16:01:42.971Z,56.43
2022-10-09T16:04:16.190Z,56.35
2022-10-09T16:06:55.942Z,56.58
2022-10-09T16:09:39.852Z,56.65
2022-10-09T16:12:19.244Z,56.68
2022-10-09T16:15:00.165Z,56.77
2022-10-09T16:17:28.302Z,56.81
2022-10-09T16:19:55.896Z,56.96
2022-10-09T16:22:23.608Z,56.88
2022-10-09T16:24:51.279Z,57.05
2022-10-09T16:27:21.915Z,57.01
2022-10-09T16:29:49.597Z,57.30
2022-10-09T16:32:17.669Z,57.50
2022-10-09T16:34:51.322Z,57.60
2022-10-09T16:37:37.913Z,57.84
2022-10-09T16:40:06.259Z,58.01
2022-10-09T16:42:34.016Z,58.04
2022-10-09T16:45:02.213Z,58.10
2022-10-09T16:47:30.274Z,58.30
2022-10-09T16:49:57.954Z,58.46
2022-10-09T16:52:25.820Z,58.61
2022-10-09T16:54:57.075Z,58.59
2022-10-09T16:57:28.878Z,58.67
2022-10-09T16:59:56.617Z,58.67
2022-10-09T17:02:24.469Z,58.73
2022-10-09T17:04:55.343Z,58.82
2022-10-09T17:07:49.764Z,58.82
2022-10-09T17:10:21.490Z,58.77
2022-10-09T17:12:55.135Z,58.73
2022-10-09T17:15:29.370Z,58.73
2022-10-09T17:17:57.187Z,58.73
2022-10-09T17:20:25.068Z,58.70
2022-10-09T17:22:54.691Z,58.69
2022-10-09T17:29:21.046Z,58.76
2022-10-09T17:31:50.578Z,58.96
2022-10-09T17:34:18.955Z,58.64
2022-10-09T17:36:46.927Z,58.68
2022-10-09T17:39:17.698Z,58.66
2022-10-09T17:42:25.647Z,58.41
2022-10-09T17:44:57.586Z,58.56
2022-10-09T17:47:29.857Z,58.52
2022-10-09T17:50:03.546Z,58.58
2022-10-09T17:52:31.677Z,58.63
2022-10-09T17:54:59.327Z,58.60
2022-10-09T17:57:27.193Z,58.60
2022-10-09T17:59:57.794Z,58.71
2022-10-09T18:02:32.278Z,58.54
2022-10-09T18:09:21.878Z,58.76
2022-10-09T18:11:59.068Z,58.79
2022-10-09T18:14:27.102Z,58.79
2022-10-09T18:16:55.533Z,58.88
2022-10-09T18:19:23.657Z,58.96
2022-10-09T18:21:52.305Z,58.99
2022-10-09T18:24:20.464Z,59.00
2022-10-09T18:26:48.215Z,59.11
2022-10-09T18:29:27.784Z,59.00
2022-10-09T18:31:56.013Z,59.16
2022-10-09T18:34:50.644Z,59.31
2022-10-09T18:37:21.205Z,59.38
2022-10-09T18:40:02.182Z,59.48
2022-10-09T18:42:29.952Z,59.47
2022-10-09T18:45:22.243Z,59.63
2022-10-09T18:47:51.919Z,59.74
2022-10-09T18:50:23.648Z,59.84
2022-10-09T18:52:51.693Z,60.01
2022-10-09T18:55:20.907Z,60.15
2022-10-09T18:57:48.729Z,60.24
2022-10-09T19:00:17.046Z,60.21
2022-10-09T19:02:44.806Z,60.19
2022-10-09T19:05:12.632Z,60.26
2022-10-09T19:07:41.157Z,60.33
2022-10-09T19:10:09.432Z,60.38
2022-10-09T19:12:37.632Z,60.54
2022-10-09T19:15:11.066Z,60.77
2022-10-09T19:17:40.092Z,60.82
2022-10-09T19:20:08.250Z,60.94
2022-10-09T19:22:36.319Z,61.09
2022-10-09T19:25:05.761Z,61.11
2022-10-09T19:27:33.918Z,60.99
2022-10-09T19:30:01.999Z,61.20
2022-10-09T19:32:31.254Z,61.31
2022-10-09T19:34:59.068Z,61.27
2022-10-09T19:37:29.691Z,61.40
2022-10-09T19:39:58.052Z,61.46
2022-10-09T19:42:26.147Z,61.56
2022-10-09T19:44:53.929Z,61.60
2022-10-09T19:47:23.910Z,61.75
2022-10-09T19:49:51.914Z,61.83
2022-10-09T19:52:20.295Z,61.89
2022-10-09T19:54:48.155Z,62.05
2022-10-09T19:57:15.922Z,62.11
2022-10-09T19:59:43.933Z,62.22
2022-10-09T20:02:11.839Z,62.46
2022-10-09T20:04:39.957Z,62.54
2022-10-09T20:07:12.323Z,62.50
2022-10-09T20:09:40.809Z,62.59
2022-10-09T20:12:09.905Z,62.77
2022-10-09T20:14:37.773Z,62.88
2022-10-09T20:17:05.419Z,62.78
2022-10-09T20:19:33.294Z,62.83
2022-10-09T20:22:01.087Z,62.89
2022-10-09T20:24:28.991Z,62.93
2022-10-09T20:26:56.726Z,63.05
2022-10-09T20:29:27.215Z,63.33
2022-10-09T20:31:55.726Z,63.18
2022-10-09T20:34:27.029Z,63.33
2022-10-09T20:36:55.216Z,63.14
2022-10-09T20:39:49.321Z,63.30
2022-10-09T20:42:17.192Z,63.45
2022-10-09T20:44:45.067Z,63.30
2022-10-09T20:47:12.892Z,63.37
2022-10-09T20:49:47.317Z,63.43
2022-10-09T20:52:15.246Z,63.60
2022-10-09T20:54:42.998Z,63.63
2022-10-09T20:57:10.939Z,63.62
2022-10-09T20:59:38.600Z,63.75
2022-10-09T21:02:06.370Z,63.76
2022-10-09T21:04:34.351Z,63.56
2022-10-09T21:07:02.050Z,63.57
2022-10-09T21:09:33.082Z,63.73
2022-10-09T21:12:02.559Z,63.74
2022-10-09T21:14:30.289Z,63.97
2022-10-09T21:16:58.082Z,63.96
2022-10-09T21:19:28.344Z,63.87
2022-10-09T21:22:02.254Z,63.95
2022-10-09T21:24:30.077Z,64.01
2022-10-09T21:26:57.901Z,64.11
2022-10-09T21:29:28.513Z,64.02
2022-10-09T21:31:56.210Z,64.16
2022-10-09T21:34:23.941Z,64.24
2022-10-09T21:37:19.904Z,64.31
2022-10-09T21:39:42.152Z,64.33
2022-10-09T21:42:09.781Z,64.13
2022-10-09T21:44:39.908Z,64.15
2022-10-09T21:47:15.150Z,64.35
2022-10-09T21:49:43.032Z,64.27
2022-10-09T21:52:10.960Z,64.46
2022-10-09T21:54:41.530Z,64.56
2022-10-09T21:57:09.498Z,64.63
2022-10-09T21:59:37.272Z,64.52
2022-10-09T22:02:08.082Z,64.68
2022-10-09T22:04:36.629Z,64.77
2022-10-09T22:07:08.268Z,64.71
2022-10-09T22:09:38.997Z,64.60
2022-10-09T22:12:06.705Z,65.03
2022-10-09T22:14:34.333Z,64.96
2022-10-09T22:17:02.160Z,65.25
2022-10-09T22:19:31.637Z,65.16
2022-10-09T22:21:59.312Z,65.09
2022-10-09T22:24:29.176Z,65.40
2022-10-09T22:26:57.665Z,65.36
2022-10-09T22:29:26.813Z,65.43
2022-10-09T22:31:54.486Z,65.50
2022-10-09T22:34:22.202Z,65.65
2022-10-09T22:36:49.941Z,65.55
2022-10-09T22:39:17.727Z,65.44
2022-10-09T22:41:48.562Z,65.33
2022-10-09T22:44:16.432Z,65.26
2022-10-09T22:46:45.218Z,65.39
2022-10-09T22:49:15.486Z,65.37
2022-10-09T22:51:44.438Z,65.65
2022-10-09T22:54:13.255Z,65.59
2022-10-09T22:56:44.449Z,65.55
2022-10-09T22:59:16.293Z,65.54
2022-10-09T23:01:53.621Z,65.72
2022-10-09T23:04:22.389Z,65.62
2022-10-09T23:06:53.129Z,65.65
2022-10-09T23:09:22.504Z,65.52
2022-10-09T23:11:50.571Z,65.86
2022-10-09T23:14:18.599Z,65.80
2022-10-09T23:16:46.356Z,65.89
2022-10-09T23:19:15.262Z,65.60
2022-10-09T23:21:45.490Z,65.57
2022-10-09T23:24:17.616Z,65.63
2022-10-09T23:26:46.929Z,65.57
2022-10-09T23:29:17.691Z,65.71
2022-10-09T23:31:45.996Z,65.83
2022-10-09T23:34:13.725Z,65.64
2022-10-09T23:36:41.519Z,65.54
2022-10-09T23:39:09.317Z,65.45
2022-10-09T23:41:38.163Z,65.51
2022-10-09T23:44:05.908Z,65.53
2022-10-09T23:46:34.131Z,65.50
2022-10-09T23:49:02.010Z,65.62
2022-10-09T23:51:30.291Z,65.56
2022-10-09T23:53:59.014Z,65.38
2022-10-09T23:56:32.176Z,65.52
2022-10-09T23:59:02.086Z,65.53
